Time;durP1;ratioP1;P1;durP2;ratioP2;P2;SDS_P1;SDS_P2;PMS_P1;PMS_P2;Temp;Humidity;BMP_temperature;BMP_pressure;BME280_temperature;BME280_humidity;BME280_pressure;Samples;Min_cycle;Max_cycle;Signal;HPM_P1;HPM_P2
2022/12/31 00:02:11;;;;;;;1.83;1.73;;;;;;;12.09;100.00;100347.28;5228908;28;20056;-83
2022/12/31 00:04:41;;;;;;;2.30;2.08;;;;;;;11.87;100.00;100317.88;5251585;28;20033;-85
2022/12/31 00:07:12;;;;;;;1.55;1.55;;;;;;;11.97;100.00;100334.06;5231673;28;20097;-84
2022/12/31 00:09:42;;;;;;;1.63;1.63;;;;;;;11.42;100.00;100248.53;5226880;28;20031;-85
2022/12/31 00:12:12;;;;;;;1.95;1.85;;;;;;;11.33;100.00;100233.97;5243968;28;20020;-86
2022/12/31 00:14:43;;;;;;;1.45;1.45;;;;;;;11.87;100.00;100311.66;5221271;28;20528;-87
2022/12/31 00:17:13;;;;;;;3.15;2.70;;;;;;;11.86;100.00;100312.75;5234029;28;20475;-86
2022/12/31 00:19:44;;;;;;;2.03;1.92;;;;;;;11.44;100.00;100243.66;5237472;28;20106;-85
2022/12/31 00:22:14;;;;;;;3.17;1.98;;;;;;;11.51;100.00;100252.31;5236186;28;20017;-85
2022/12/31 00:24:44;;;;;;;2.08;1.98;;;;;;;11.60;100.00;100264.13;5235539;28;20036;-85
2022/12/31 00:27:15;;;;;;;2.47;2.10;;;;;;;11.34;100.00;100225.59;5235705;28;20024;-84
2022/12/31 00:29:45;;;;;;;1.75;1.65;;;;;;;11.62;100.00;100269.28;5236590;28;20053;-85
2022/12/31 00:32:16;;;;;;;2.10;2.00;;;;;;;11.50;100.00;100250.69;5242014;28;20059;-84
2022/12/31 00:34:46;;;;;;;2.42;2.33;;;;;;;11.38;100.00;100223.13;5242351;28;20421;-85
2022/12/31 00:37:17;;;;;;;1.80;1.77;;;;;;;11.41;100.00;100214.47;5234090;28;20043;-85
2022/12/31 00:39:47;;;;;;;2.45;2.35;;;;;;;11.83;100.00;100268.13;5234894;28;20107;-86
2022/12/31 00:42:17;;;;;;;1.77;1.73;;;;;;;11.92;100.00;100285.38;5218275;28;20031;-83
2022/12/31 00:44:48;;;;;;;2.50;2.30;;;;;;;11.94;100.00;100275.09;5238038;28;20029;-83
2022/12/31 00:47:18;;;;;;;4.43;2.72;;;;;;;11.58;100.00;100216.81;5236998;28;20028;-83
2022/12/31 00:49:49;;;;;;;2.83;2.63;;;;;;;11.58;100.00;100222.22;5234423;28;20506;-85
2022/12/31 00:52:19;;;;;;;1.75;1.75;;;;;;;11.83;100.00;100254.63;5216565;28;20089;-85
2022/12/31 00:54:49;;;;;;;3.00;1.95;;;;;;;11.73;100.00;100244.63;5235171;28;20031;-85
2022/12/31 00:57:20;;;;;;;1.98;1.95;;;;;;;11.50;100.00;100208.22;5220186;28;20035;-86
2022/12/31 00:59:50;;;;;;;1.58;1.58;;;;;;;11.73;100.00;100227.56;5220537;28;20406;-85
2022/12/31 01:02:20;;;;;;;1.65;1.60;;;;;;;11.46;100.00;100172.00;5237470;28;20025;-85
2022/12/31 01:04:51;;;;;;;1.20;1.20;;;;;;;12.11;100.00;100248.50;5219222;28;20029;-85
2022/12/31 01:07:21;;;;;;;1.33;1.33;;;;;;;11.77;100.00;100199.72;5236005;28;20021;-85
2022/12/31 01:09:52;;;;;;;1.30;1.30;;;;;;;12.13;100.00;100267.94;5236851;28;20021;-84
2022/12/31 01:12:24;;;;;;;1.10;1.10;;;;;;;11.89;100.00;100249.97;5238065;28;20021;-85
2022/12/31 01:14:54;;;;;;;1.13;1.13;;;;;;;11.80;100.00;100257.88;5237926;28;20028;-84
2022/12/31 01:17:26;;;;;;;1.52;1.42;;;;;;;12.27;100.00;100321.47;5221562;28;20084;-85
2022/12/31 01:19:57;;;;;;;1.45;1.45;;;;;;;12.25;100.00;100323.63;5219554;28;20154;-86
2022/12/31 01:22:27;;;;;;;1.25;1.25;;;;;;;11.90;100.00;100360.63;5218201;28;20115;-84
2022/12/31 01:24:57;;;;;;;1.23;1.23;;;;;;;11.91;100.00;100372.25;5233889;28;20032;-86
2022/12/31 01:27:28;;;;;;;1.35;1.25;;;;;;;11.78;100.00;100384.47;5233371;28;20025;-87
2022/12/31 01:29:58;;;;;;;1.55;1.50;;;;;;;11.43;100.00;100359.13;5237785;28;20517;-85
2022/12/31 01:32:29;;;;;;;1.20;1.20;;;;;;;11.59;100.00;100369.88;5222168;28;20025;-85
2022/12/31 01:34:59;;;;;;;1.20;1.20;;;;;;;11.23;100.00;100318.63;5235967;28;20105;-84
2022/12/31 01:37:29;;;;;;;1.08;1.08;;;;;;;11.52;100.00;100358.56;5220185;28;20505;-85
2022/12/31 01:40:03;;;;;;;1.10;1.10;;;;;;;11.39;100.00;100355.34;5239518;28;20029;-85
2022/12/31 01:42:34;;;;;;;1.27;1.17;;;;;;;11.41;100.00;100374.00;5236768;28;20020;-84
2022/12/31 01:45:11;;;;;;;1.90;1.67;;;;;;;11.37;100.00;100370.22;5220328;28;20032;-84
2022/12/31 01:47:49;;;;;;;1.27;1.27;;;;;;;11.34;100.00;100389.66;5238506;28;20032;-85
2022/12/31 01:50:24;;;;;;;0.90;0.90;;;;;;;11.27;100.00;100384.53;5238087;28;20039;-83
2022/12/31 01:53:01;;;;;;;0.90;0.90;;;;;;;11.29;100.00;100393.19;5237819;28;20510;-84
2022/12/31 01:55:31;;;;;;;1.05;1.05;;;;;;;11.26;100.00;100403.75;5237701;28;20548;-84
2022/12/31 01:58:22;;;;;;;1.00;1.00;;;;;;;11.18;100.00;100385.38;5237535;28;20016;-85
2022/12/31 02:00:53;;;;;;;1.02;1.02;;;;;;;11.18;100.00;100413.22;5238327;28;20033;-84
2022/12/31 02:03:26;;;;;;;1.00;1.00;;;;;;;11.22;100.00;100414.28;5238718;28;20395;-84
2022/12/31 02:06:21;;;;;;;0.88;0.88;;;;;;;11.25;100.00;100416.47;5238719;28;20088;-85
2022/12/31 02:08:52;;;;;;;0.90;0.90;;;;;;;11.13;100.00;100400.50;5219619;28;20021;-85
2022/12/31 02:11:30;;;;;;;0.90;0.90;;;;;;;11.22;100.00;100417.00;5236960;28;20051;-86
2022/12/31 02:14:06;;;;;;;1.15;1.15;;;;;;;11.21;100.00;100418.09;5217674;28;20021;-85
2022/12/31 02:17:06;;;;;;;0.80;0.80;;;;;;;11.07;100.00;100416.97;5239924;28;20088;-85
2022/12/31 02:20:02;;;;;;;1.48;1.02;;;;;;;11.19;100.00;100422.94;5217502;28;20025;-87
2022/12/31 02:23:06;;;;;;;0.90;0.90;;;;;;;11.19;100.00;100430.25;5232771;28;20525;-87
2022/12/31 02:26:10;;;;;;;1.65;1.20;;;;;;;11.19;100.00;100428.34;5233255;28;20146;-86
2022/12/31 02:29:01;;;;;;;1.10;1.10;;;;;;;11.19;100.00;100430.25;5234585;28;20025;-85
2022/12/31 02:31:48;;;;;;;1.00;1.00;;;;;;;10.90;100.00;100374.03;5234455;28;20048;-87
2022/12/31 02:34:32;;;;;;;0.90;0.90;;;;;;;10.92;100.00;100376.47;5216433;28;20025;-87
2022/12/31 02:37:05;;;;;;;0.80;0.80;;;;;;;11.08;100.00;100403.22;5215088;28;20102;-86
2022/12/31 02:39:37;;;;;;;0.70;0.70;;;;;;;11.17;100.00;100430.50;5233390;28;20048;-86
2022/12/31 02:42:09;;;;;;;0.90;0.90;;;;;;;10.94;100.00;100379.72;5233815;28;20029;-86
2022/12/31 02:44:42;;;;;;;1.00;1.00;;;;;;;11.16;100.00;100405.38;5234358;28;20028;-85
2022/12/31 02:47:21;;;;;;;0.90;0.90;;;;;;;10.87;100.00;100355.66;5233561;28;20032;-85
2022/12/31 02:49:58;;;;;;;1.00;1.00;;;;;;;11.14;100.00;100407.53;5216221;28;20029;-85
2022/12/31 02:52:58;;;;;;;0.82;0.82;;;;;;;11.16;100.00;100412.66;5234124;28;20047;-84
2022/12/31 02:55:54;;;;;;;1.00;1.00;;;;;;;11.16;100.00;100409.97;5219748;28;20043;-84
2022/12/31 03:04:32;;;;;;;0.93;0.93;;;;;;;11.15;100.00;100392.94;5240229;28;20108;-85
2022/12/31 03:07:12;;;;;;;1.23;1.23;;;;;;;11.19;100.00;100387.00;5239501;28;20029;-85
2022/12/31 03:09:42;;;;;;;1.08;1.08;;;;;;;11.06;100.00;100361.31;5219930;28;20082;-85
2022/12/31 03:15:05;;;;;;;1.08;1.08;;;;;;;11.29;100.00;100378.84;5237737;28;20044;-85
2022/12/31 03:17:35;;;;;;;1.58;1.48;;;;;;;11.30;100.00;100362.38;5238006;28;20020;-84
2022/12/31 03:22:55;;;;;;;1.63;1.53;;;;;;;11.40;100.00;100362.38;5239631;28;20033;-84
2022/12/31 03:25:40;;;;;;;1.20;1.17;;;;;;;11.55;100.00;100376.94;5240340;28;20024;-85
2022/12/31 03:28:14;;;;;;;1.98;1.75;;;;;;;11.73;100.00;100352.81;5222635;28;20055;-83
2022/12/31 03:30:47;;;;;;;2.92;1.20;;;;;;;11.79;100.00;100310.34;5240503;28;20051;-84
2022/12/31 03:35:51;;;;;;;1.48;1.48;;;;;;;12.11;100.00;100354.03;5224123;28;20095;-68
2022/12/31 03:38:22;;;;;;;5.07;1.42;;;;;;;12.05;100.00;100338.91;5225869;28;20032;-68
2022/12/31 03:40:52;;;;;;;2.25;1.63;;;;;;;12.14;100.00;100339.94;5226037;28;20237;-68
2022/12/31 03:43:23;;;;;;;2.30;2.13;;;;;;;12.22;100.00;100343.16;5207373;28;20028;-67
2022/12/31 03:45:54;;;;;;;1.77;1.65;;;;;;;12.26;100.00;100357.75;5226063;28;20024;-68
2022/12/31 03:48:24;;;;;;;3.22;1.77;;;;;;;12.24;100.00;100349.09;5225447;28;20091;-68
2022/12/31 03:50:54;;;;;;;1.23;1.17;;;;;;;12.41;100.00;100371.22;5225645;28;20029;-68
2022/12/31 03:53:26;;;;;;;3.35;1.98;;;;;;;12.57;100.00;100353.75;5224877;28;20032;-67
2022/12/31 03:55:56;;;;;;;1.63;1.52;;;;;;;12.59;100.00;100342.66;5225095;28;20104;-67
2022/12/31 03:58:26;;;;;;;1.95;1.85;;;;;;;12.67;100.00;100340.16;5225496;28;20105;-67
2022/12/31 04:00:57;;;;;;;1.70;1.33;;;;;;;12.71;100.00;100349.31;5225598;28;20021;-68
2022/12/31 04:03:27;;;;;;;1.80;1.67;;;;;;;12.81;100.00;100365.50;5224805;28;20035;-68
2022/12/31 04:05:57;;;;;;;2.85;1.98;;;;;;;12.84;100.00;100361.41;5224731;28;20672;-67
2022/12/31 04:08:28;;;;;;;1.13;1.10;;;;;;;12.85;100.00;100358.44;5225593;28;20465;-67
2022/12/31 04:10:58;;;;;;;2.08;1.55;;;;;;;12.90;100.00;100387.41;5225002;28;20448;-67
2022/12/31 04:13:28;;;;;;;1.40;1.40;;;;;;;12.93;100.00;100367.06;5224679;28;20075;-67
2022/12/31 04:15:59;;;;;;;2.38;2.28;;;;;;;12.99;100.00;100360.50;5225178;28;20029;-68
2022/12/31 04:18:29;;;;;;;1.05;0.95;;;;;;;13.01;100.00;100367.22;5225083;28;20220;-68
2022/12/31 04:21:01;;;;;;;2.33;1.63;;;;;;;13.01;100.00;100369.13;5225036;28;20120;-67
2022/12/31 04:23:31;;;;;;;1.30;1.30;;;;;;;13.03;100.00;100373.19;5222954;28;20103;-68
2022/12/31 04:26:02;;;;;;;4.45;2.50;;;;;;;13.12;100.00;100376.09;5206893;28;20112;-67
2022/12/31 04:28:32;;;;;;;2.25;1.60;;;;;;;13.11;100.00;100363.63;5224566;28;20366;-67
2022/12/31 04:31:03;;;;;;;1.63;1.52;;;;;;;13.24;100.00;100354.06;5224840;28;20025;-67
2022/12/31 04:33:33;;;;;;;2.05;1.92;;;;;;;13.24;100.00;100346.75;5223884;28;20319;-67
2022/12/31 04:36:06;;;;;;;1.75;1.65;;;;;;;13.29;100.00;100357.50;5224771;28;20020;-66
2022/12/31 04:38:36;;;;;;;1.33;1.25;;;;;;;13.41;100.00;100379.66;5224592;28;20025;-68
2022/12/31 04:41:16;;;;;;;2.58;2.05;;;;;;;13.49;100.00;100370.09;5224490;28;20389;-68
2022/12/31 04:43:50;;;;;;;1.30;1.27;;;;;;;13.53;100.00;100373.84;5206016;28;20029;-67
2022/12/31 04:46:24;;;;;;;3.85;1.88;;;;;;;13.52;100.00;100375.75;5224569;28;20485;-69
2022/12/31 04:48:55;;;;;;;1.60;1.50;;;;;;;13.56;100.00;100377.88;5224673;28;20021;-67
2022/12/31 04:51:27;;;;;;;3.80;1.42;;;;;;;13.65;100.00;100387.00;5206844;28;20098;-69
2022/12/31 04:53:58;;;;;;;1.90;1.83;;;;;;;13.65;100.00;100389.72;5223992;28;20024;-67
2022/12/31 04:56:29;;;;;;;1.00;1.00;;;;;;;13.67;100.00;100382.09;5206426;28;20021;-67
2022/12/31 04:59:00;;;;;;;1.63;1.63;;;;;;;13.62;100.00;100380.25;5224325;28;20021;-68
2022/12/31 05:01:31;;;;;;;1.58;1.48;;;;;;;13.77;100.00;100393.66;5224040;28;20059;-66
2022/12/31 05:04:02;;;;;;;1.17;1.17;;;;;;;13.82;100.00;100388.19;5223584;28;20024;-69
2022/12/31 05:06:32;;;;;;;2.83;1.58;;;;;;;13.83;100.00;100370.00;5224366;28;20032;-67
2022/12/31 05:09:03;;;;;;;4.90;2.13;;;;;;;13.90;100.00;100375.84;5224134;28;20031;-66
2022/12/31 05:11:34;;;;;;;1.55;1.52;;;;;;;13.88;100.00;100371.81;5224401;28;20065;-67
2022/12/31 05:14:05;;;;;;;0.90;0.90;;;;;;;13.81;100.00;100359.41;5205358;28;20542;-67
2022/12/31 05:16:35;;;;;;;1.58;1.25;;;;;;;13.93;100.00;100388.84;5223556;28;20032;-67
2022/12/31 05:19:08;;;;;;;1.20;1.20;;;;;;;13.93;100.00;100385.31;5223897;28;20076;-66
2022/12/31 05:21:38;;;;;;;1.35;1.35;;;;;;;13.97;100.00;100392.59;5205925;28;20028;-70
2022/12/31 05:24:09;;;;;;;2.50;1.33;;;;;;;13.99;100.00;100395.03;5223425;28;20032;-67
2022/12/31 05:26:39;;;;;;;1.52;1.42;;;;;;;14.09;100.00;100390.28;5223802;28;20017;-67
2022/12/31 05:29:10;;;;;;;1.42;1.42;;;;;;;14.17;100.00;100388.81;5223980;28;20063;-67
2022/12/31 05:31:40;;;;;;;1.10;1.10;;;;;;;14.20;100.00;100375.47;5223692;28;20021;-67
2022/12/31 05:34:10;;;;;;;8.75;2.15;;;;;;;14.35;100.00;100398.09;5223348;28;20040;-66
2022/12/31 05:36:41;;;;;;;1.40;1.40;;;;;;;14.41;100.00;100414.09;5223822;28;20024;-66
2022/12/31 05:39:11;;;;;;;1.65;1.60;;;;;;;14.54;100.00;100401.66;5223664;28;20099;-70
2022/12/31 05:41:41;;;;;;;2.90;1.30;;;;;;;14.55;100.00;100395.13;5223592;28;20016;-67
2022/12/31 05:44:12;;;;;;;2.97;2.03;;;;;;;14.54;100.00;100407.09;5223237;28;20149;-66
2022/12/31 05:46:42;;;;;;;2.30;2.20;;;;;;;14.47;100.00;100404.75;5223641;28;20025;-66
2022/12/31 05:49:12;;;;;;;3.20;2.92;;;;;;;14.48;100.00;100419.13;5223734;28;20469;-66
2022/12/31 05:51:43;;;;;;;4.95;2.38;;;;;;;14.45;100.00;100442.25;5223305;28;20297;-66
2022/12/31 05:54:13;;;;;;;2.67;2.03;;;;;;;14.51;100.00;100399.53;5223124;28;20021;-65
2022/12/31 05:56:43;;;;;;;1.55;1.55;;;;;;;14.46;100.00;100405.84;5223740;28;20035;-65
2022/12/31 05:59:14;;;;;;;1.80;1.67;;;;;;;14.23;100.00;100346.13;5224003;28;20025;-66
2022/12/31 06:01:44;;;;;;;4.28;1.95;;;;;;;14.64;100.00;100417.84;5223096;28;20024;-71
2022/12/31 06:04:15;;;;;;;1.75;1.75;;;;;;;14.71;100.00;100444.66;5222826;28;20103;-68
2022/12/31 06:06:45;;;;;;;1.88;1.77;;;;;;;14.67;100.00;100455.31;5223544;28;20025;-67
2022/12/31 06:09:18;;;;;;;1.75;1.65;;;;;;;14.64;100.00;100460.50;5223482;28;20028;-65
2022/12/31 06:11:49;;;;;;;1.75;1.75;;;;;;;14.65;100.00;100435.75;5205427;28;20033;-72
2022/12/31 06:14:19;;;;;;;7.13;1.92;;;;;;;14.57;100.00;100417.38;5223176;28;20071;-68
2022/12/31 06:16:50;;;;;;;1.88;1.77;;;;;;;14.68;100.00;100437.91;5223258;28;20366;-65
2022/12/31 06:19:20;;;;;;;1.45;1.45;;;;;;;14.71;100.00;100437.31;5223574;28;20020;-66
2022/12/31 06:21:50;;;;;;;2.13;2.03;;;;;;;14.71;100.00;100434.59;5223238;28;20116;-65
2022/12/31 06:24:21;;;;;;;1.83;1.83;;;;;;;14.68;100.00;100435.19;5223736;28;20032;-65
2022/12/31 06:26:51;;;;;;;2.38;2.28;;;;;;;14.67;100.00;100443.63;5223489;28;20543;-65
2022/12/31 06:29:22;;;;;;;2.90;1.60;;;;;;;14.65;100.00;100445.81;5226362;28;20388;-71
2022/12/31 06:31:52;;;;;;;1.80;1.70;;;;;;;14.66;100.00;100440.09;5227212;28;20492;-72
2022/12/31 06:34:22;;;;;;;3.40;2.85;;;;;;;14.61;100.00;100431.19;5227175;28;20115;-67
2022/12/31 06:36:53;;;;;;;1.85;1.75;;;;;;;14.62;100.00;100449.13;5227306;28;20029;-66
2022/12/31 06:39:23;;;;;;;7.82;2.80;;;;;;;14.64;100.00;100455.06;5227301;28;20012;-65
2022/12/31 06:41:54;;;;;;;2.15;2.05;;;;;;;14.59;100.00;100447.78;5222470;28;20249;-69
2022/12/31 06:44:24;;;;;;;1.80;1.70;;;;;;;14.54;100.00;100447.84;5225101;28;20532;-65
2022/12/31 06:46:54;;;;;;;3.33;1.50;;;;;;;14.44;100.00;100451.50;5226272;28;20106;-65
2022/12/31 06:49:25;;;;;;;3.47;1.80;;;;;;;14.40;100.00;100450.47;5225588;28;20492;-69
2022/12/31 06:51:55;;;;;;;2.63;2.47;;;;;;;14.33;100.00;100443.78;5226556;28;20021;-67
2022/12/31 06:54:25;;;;;;;2.78;2.13;;;;;;;14.42;100.00;100464.59;5225109;28;20024;-66
2022/12/31 06:56:56;;;;;;;2.38;2.15;;;;;;;14.39;100.00;100446.13;5226836;28;20028;-66
2022/12/31 06:59:28;;;;;;;4.55;3.05;;;;;;;14.40;100.00;100452.38;5227282;28;20354;-66
2022/12/31 07:02:24;;;;;;;1.45;1.45;;;;;;;14.43;100.00;100459.97;5208013;28;20033;-66
2022/12/31 07:05:16;;;;;;;6.70;2.42;;;;;;;14.45;100.00;100463.19;5226497;28;20021;-65
2022/12/31 07:07:52;;;;;;;1.88;1.77;;;;;;;14.45;100.00;100455.84;5224742;28;20029;-66
2022/12/31 07:10:43;;;;;;;4.10;1.70;;;;;;;14.46;100.00;100486.53;5226829;28;20053;-66
2022/12/31 07:13:45;;;;;;;5.47;2.08;;;;;;;14.40;100.00;100479.53;5225220;28;20033;-68
2022/12/31 07:16:41;;;;;;;2.30;2.20;;;;;;;14.31;100.00;100511.16;5225360;28;20044;-71
2022/12/31 07:19:22;;;;;;;3.05;2.72;;;;;;;14.23;100.00;100473.75;5229770;28;20033;-65
2022/12/31 07:21:57;;;;;;;6.07;3.80;;;;;;;14.17;100.00;100473.00;5229834;28;20020;-68
2022/12/31 07:24:27;;;;;;;2.42;2.17;;;;;;;14.15;100.00;100477.91;5227453;28;20272;-66
2022/12/31 07:27:19;;;;;;;1.85;1.75;;;;;;;14.12;100.00;100492.09;5229804;28;20048;-65
2022/12/31 07:29:52;;;;;;;2.53;2.42;;;;;;;14.14;100.00;100479.84;5232337;28;20087;-66
2022/12/31 07:32:31;;;;;;;9.07;2.58;;;;;;;14.14;100.00;100488.00;5226172;28;20029;-65
2022/12/31 07:35:34;;;;;;;3.47;2.90;;;;;;;14.16;100.00;100495.81;5226337;28;20037;-66
2022/12/31 07:38:35;;;;;;;1.75;1.75;;;;;;;14.18;100.00;100502.59;5182173;28;20036;-68
2022/12/31 07:41:23;;;;;;;2.15;2.05;;;;;;;14.22;100.00;100483.00;5225773;28;20032;-68
2022/12/31 07:44:14;;;;;;;2.47;2.38;;;;;;;14.16;100.00;100483.06;5224933;28;20025;-70
2022/12/31 07:46:59;;;;;;;1.67;1.65;;;;;;;14.20;100.00;100489.53;5226483;28;20025;-66
2022/12/31 07:49:32;;;;;;;1.95;1.85;;;;;;;14.13;100.00;100483.66;5208677;28;20025;-69
2022/12/31 07:52:03;;;;;;;20.25;3.42;;;;;;;14.16;100.00;100507.50;5225989;28;20052;-66
2022/12/31 07:54:33;;;;;;;2.42;2.33;;;;;;;14.15;100.00;100546.59;5226165;28;20024;-65
2022/12/31 07:57:04;;;;;;;1.63;1.52;;;;;;;14.15;100.00;100540.38;5226697;28;20099;-64
2022/12/31 07:59:59;;;;;;;5.28;2.50;;;;;;;14.17;100.00;100536.28;5226540;28;20477;-68
2022/12/31 08:02:49;;;;;;;2.40;2.22;;;;;;;14.27;100.00;100529.13;5224952;28;20427;-66
2022/12/31 08:05:37;;;;;;;4.47;2.83;;;;;;;14.32;100.00;100539.94;5226376;28;20029;-65
2022/12/31 08:08:29;;;;;;;2.00;1.90;;;;;;;14.29;100.00;100556.81;5226469;28;20072;-65
2022/12/31 08:11:13;;;;;;;4.10;2.47;;;;;;;14.28;100.00;100552.47;5226413;28;20025;-66
2022/12/31 08:13:44;;;;;;;1.55;1.52;;;;;;;14.26;100.00;100557.38;5224855;28;20493;-66
2022/12/31 08:16:15;;;;;;;2.15;2.00;;;;;;;14.24;100.00;100554.13;5226568;28;20513;-65
2022/12/31 08:18:45;;;;;;;2.53;2.35;;;;;;;14.26;100.00;100549.22;5226409;28;20029;-68
2022/12/31 08:21:16;;;;;;;1.67;1.58;;;;;;;14.28;100.00;100560.63;5226293;28;20075;-64
2022/12/31 08:23:46;;;;;;;2.38;2.25;;;;;;;14.29;100.00;100576.63;5225467;28;20028;-64
2022/12/31 08:26:36;;;;;;;1.30;1.30;;;;;;;14.33;100.00;100566.00;5226294;28;20036;-64
2022/12/31 08:29:18;;;;;;;3.70;1.48;;;;;;;14.34;100.00;100560.28;5224808;28;20013;-65
2022/12/31 08:32:14;;;;;;;1.40;1.40;;;;;;;14.36;100.00;100587.16;5225628;28;20124;-64
2022/12/31 08:34:48;;;;;;;3.38;1.95;;;;;;;14.30;100.00;100591.84;5225734;28;20467;-65
2022/12/31 08:37:31;;;;;;;3.50;1.90;;;;;;;14.09;100.00;100576.84;5225807;28;20028;-68
2022/12/31 08:40:37;;;;;;;2.90;2.58;;;;;;;14.20;100.00;100589.22;5207559;28;20033;-64
2022/12/31 08:43:52;;;;;;;1.55;1.50;;;;;;;14.27;100.00;100591.59;5224770;28;20039;-64
2022/12/31 08:46:30;;;;;;;2.00;1.88;;;;;;;14.31;100.00;100612.47;5204831;28;20497;-64
2022/12/31 08:49:00;;;;;;;2.30;2.10;;;;;;;14.37;100.00;100592.31;5206519;28;20361;-69
2022/12/31 08:51:31;;;;;;;2.55;2.25;;;;;;;14.50;100.00;100596.25;5222442;28;20032;-67
2022/12/31 08:54:02;;;;;;;1.85;1.75;;;;;;;14.56;100.00;100600.56;5225083;28;20033;-64
2022/12/31 08:56:48;;;;;;;2.00;1.90;;;;;;;14.53;100.00;100592.97;5223439;28;20028;-64
2022/12/31 08:59:34;;;;;;;1.85;1.75;;;;;;;14.55;100.00;100609.78;5225406;28;20374;-65
2022/12/31 09:02:23;;;;;;;2.20;2.05;;;;;;;14.64;100.00;100605.34;5225419;28;20020;-65
2022/12/31 09:05:12;;;;;;;2.78;2.63;;;;;;;14.71;100.00;100630.28;5225741;28;20055;-66
2022/12/31 09:08:08;;;;;;;8.50;2.93;;;;;;;14.79;100.00;100642.41;5224701;28;20481;-66
2022/12/31 09:10:43;;;;;;;2.47;2.20;;;;;;;14.86;100.00;100626.56;5225495;28;20029;-65
2022/12/31 09:13:20;;;;;;;1.70;1.67;;;;;;;14.83;100.00;100647.00;5224766;28;20028;-68
2022/12/31 09:16:11;;;;;;;4.30;2.08;;;;;;;14.83;100.00;100654.34;5225060;28;20040;-65
2022/12/31 09:18:41;;;;;;;4.90;2.10;;;;;;;14.80;100.00;100638.59;5211167;28;20037;-65
2022/12/31 09:21:14;;;;;;;4.80;2.92;;;;;;;14.93;100.00;100637.09;5225076;28;20503;-65
2022/12/31 09:23:44;;;;;;;2.92;1.88;;;;;;;14.97;100.00;100654.47;5225026;28;20075;-69
2022/12/31 09:26:18;;;;;;;2.60;2.38;;;;;;;14.96;100.00;100661.00;5224128;28;20016;-65
2022/12/31 09:29:12;;;;;;;2.47;2.30;;;;;;;15.01;100.00;100677.25;5224893;28;20048;-64
2022/12/31 09:32:06;;;;;;;2.78;1.83;;;;;;;15.03;100.00;100653.28;5224400;28;20483;-65
2022/12/31 09:34:40;;;;;;;4.93;2.67;;;;;;;15.00;100.00;100659.31;5249219;22;20050;-64
2022/12/31 09:37:37;;;;;;;2.60;2.50;;;;;;;14.93;100.00;100672.44;5259742;28;20024;-63
2022/12/31 09:40:29;;;;;;;10.45;2.95;;;;;;;14.85;100.00;100685.56;5243950;28;20461;-64
2022/12/31 09:43:02;;;;;;;2.63;2.53;;;;;;;14.89;100.00;100674.13;5244492;28;20021;-63
2022/12/31 09:45:51;;;;;;;3.90;2.25;;;;;;;14.88;100.00;100680.66;5244879;28;20058;-63
2022/12/31 09:48:57;;;;;;;2.92;2.53;;;;;;;14.85;100.00;100703.78;5245431;28;20231;-63
2022/12/31 09:51:38;;;;;;;2.67;2.33;;;;;;;14.72;100.00;100697.16;5244693;28;20016;-64
2022/12/31 09:54:26;;;;;;;5.18;3.28;;;;;;;14.59;100.00;100708.69;5244123;28;20395;-64
2022/12/31 09:57:39;;;;;;;6.00;5.18;;;;;;;14.53;100.00;100694.31;5244839;28;20357;-64
2022/12/31 10:00:19;;;;;;;3.50;3.25;;;;;;;14.58;100.00;100688.03;5234413;28;20476;-63
2022/12/31 10:03:19;;;;;;;3.83;2.47;;;;;;;14.70;100.00;100688.47;5245670;28;20127;-64
2022/12/31 10:06:02;;;;;;;;;;;;;;;14.86;100.00;100700.78;5203878;28;20193;-63
2022/12/31 10:09:11;;;;;;;4.00;1.90;;;;;;;14.98;100.00;100710.47;5244586;28;19920;-63
2022/12/31 10:12:01;;;;;;;2.50;2.30;;;;;;;14.99;100.00;100699.31;5245416;28;20032;-64
2022/12/31 10:14:40;;;;;;;7.82;3.53;;;;;;;15.02;100.00;100697.88;5243255;28;20032;-64
2022/12/31 10:17:48;;;;;;;3.25;1.77;;;;;;;15.01;100.00;100699.81;5244610;28;20736;-64
2022/12/31 10:20:38;;;;;;;2.72;2.50;;;;;;;14.90;100.00;100675.75;5245654;28;20028;-64
2022/12/31 10:23:11;;;;;;;3.33;2.95;;;;;;;15.04;100.00;100703.84;5244866;28;20024;-64
2022/12/31 10:26:12;;;;;;;5.38;2.83;;;;;;;15.08;100.00;100702.19;5244713;28;20680;-64
2022/12/31 10:28:45;;;;;;;2.90;2.65;;;;;;;15.08;100.00;100715.78;5245338;28;20043;-64
2022/12/31 10:31:36;;;;;;;2.70;2.22;;;;;;;15.10;100.00;100716.28;5243920;28;20082;-64
2022/12/31 10:34:46;;;;;;;2.83;2.63;;;;;;;15.09;100.00;100725.56;5245091;28;20127;-64
2022/12/31 10:37:17;;;;;;;;;;;;;;;15.10;100.00;100711.66;5227714;28;20427;-64
2022/12/31 10:40:11;;;;;;;2.95;2.85;;;;;;;15.12;100.00;100722.25;5245784;28;19916;-64
2022/12/31 10:43:15;;;;;;;3.55;2.58;;;;;;;15.14;100.00;100714.63;5244609;28;20120;-64
2022/12/31 10:46:00;;;;;;;3.28;2.97;;;;;;;15.15;100.00;100714.34;5245831;28;20024;-62
2022/12/31 10:48:43;;;;;;;2.45;2.35;;;;;;;15.17;100.00;100714.03;5245482;28;20024;-64
2022/12/31 10:51:47;;;;;;;4.30;3.28;;;;;;;15.22;100.00;100722.16;5245698;28;20456;-62
2022/12/31 10:54:42;;;;;;;2.20;2.10;;;;;;;15.20;100.00;100729.78;5244690;28;20034;-63
2022/12/31 10:57:37;;;;;;;4.80;2.30;;;;;;;15.22;100.00;100724.88;5245143;28;20034;-64
2022/12/31 11:00:14;;;;;;;3.05;2.83;;;;;;;15.21;100.00;100723.25;5245697;28;20492;-63
2022/12/31 11:03:30;;;;;;;2.33;2.22;;;;;;;15.25;100.00;100724.28;5244816;28;20052;-63
2022/12/31 11:06:07;;;;;;;3.95;2.78;;;;;;;15.29;100.00;100727.25;5244107;28;20115;-63
2022/12/31 11:09:25;;;;;;;4.70;2.72;;;;;;;15.27;100.00;100735.69;5245065;28;20024;-64
2022/12/31 11:12:19;;;;;;;3.30;2.65;;;;;;;15.23;100.00;100733.84;5123954;28;20125;-65
2022/12/31 11:15:18;;;;;;;4.63;2.83;;;;;;;15.15;100.00;100727.94;5142712;28;20066;-65
2022/12/31 11:18:01;;;;;;;2.97;2.78;;;;;;;15.18;100.00;100740.16;5237285;28;20032;-64
2022/12/31 11:20:50;;;;;;;2.15;2.05;;;;;;;15.17;100.00;100724.94;5248928;28;20109;-64
2022/12/31 11:23:43;;;;;;;2.47;2.37;;;;;;;15.18;100.00;100724.63;5246991;28;20032;-64
2022/12/31 11:26:50;;;;;;;3.72;3.13;;;;;;;15.16;100.00;100764.09;5248494;28;20491;-63
2022/12/31 11:29:50;;;;;;;3.17;2.85;;;;;;;15.16;100.00;100745.06;5248720;28;20032;-64
2022/12/31 11:32:35;;;;;;;5.55;2.85;;;;;;;15.12;100.00;100754.91;5248139;28;20029;-64
2022/12/31 11:35:21;;;;;;;3.88;2.38;;;;;;;15.02;100.00;100755.81;5240583;28;20051;-64
2022/12/31 11:38:04;;;;;;;18.50;4.03;;;;;;;14.89;100.00;100731.22;5227603;28;20024;-64
2022/12/31 11:40:53;;;;;;;6.50;3.38;;;;;;;14.89;100.00;100750.25;5227862;28;20040;-64
2022/12/31 11:43:48;;;;;;;4.77;3.30;;;;;;;14.82;100.00;100753.31;5227384;28;20028;-64
2022/12/31 11:46:56;;;;;;;3.88;2.53;;;;;;;14.68;100.00;100750.47;5227728;28;20088;-65
2022/12/31 11:49:39;;;;;;;6.43;3.10;;;;;;;14.47;100.00;100743.56;5227051;28;20025;-66
2022/12/31 11:52:43;;;;;;;3.28;2.90;;;;;;;14.32;100.00;100724.66;5219952;28;20184;-68
2022/12/31 11:55:34;;;;;;;6.30;2.90;;;;;;;14.28;100.00;100729.84;5225591;28;20029;-66
2022/12/31 11:58:14;;;;;;;5.38;2.92;;;;;;;14.25;100.00;100729.59;5226805;28;20021;-65
2022/12/31 12:00:53;;;;;;;4.68;4.25;;;;;;;14.23;100.00;100748.88;5205256;28;20036;-66
2022/12/31 12:03:24;;;;;;;5.82;2.33;;;;;;;14.27;100.00;100743.69;5204922;28;20090;-65
2022/12/31 12:05:56;;;;;;;9.10;3.20;;;;;;;14.28;100.00;100740.69;5201566;28;20041;-62
2022/12/31 12:08:30;;;;;;;11.18;3.53;;;;;;;14.31;100.00;100734.69;5204298;28;20021;-64
2022/12/31 12:11:17;;;;;;;5.03;2.72;;;;;;;14.38;100.00;100732.47;5202319;28;20025;-64
2022/12/31 12:13:48;;;;;;;2.42;2.33;;;;;;;14.45;100.00;100743.03;5213369;28;20550;-66
2022/12/31 12:16:21;;;;;;;2.63;2.53;;;;;;;14.52;100.00;100725.31;5226241;28;20029;-65
2022/12/31 12:19:07;;;;;;;3.58;3.08;;;;;;;14.59;100.00;100730.41;5226503;28;20021;-67
2022/12/31 12:21:47;;;;;;;5.03;2.70;;;;;;;14.66;100.00;100727.38;5225914;28;20028;-64
2022/12/31 12:24:20;;;;;;;4.00;3.40;;;;;;;14.73;100.00;100717.75;5224501;28;20032;-64